createdAt,value
2023-03-29T00:01:01.616Z,1.67
2023-03-29T00:03:35.280Z,1.43
2023-03-29T00:06:15.400Z,1.57
2023-03-29T00:08:54.132Z,1.30
2023-03-29T00:11:29.216Z,1.53
2023-03-29T00:14:02.948Z,1.47
2023-03-29T00:16:36.793Z,1.50
2023-03-29T00:19:11.374Z,1.57
2023-03-29T00:21:46.314Z,1.40
2023-03-29T00:24:21.154Z,1.60
2023-03-29T00:26:55.107Z,1.60
2023-03-29T00:29:28.743Z,1.40
2023-03-29T00:32:02.627Z,1.67
2023-03-29T00:34:37.292Z,1.60
2023-03-29T00:37:14.869Z,1.30
2023-03-29T00:39:48.704Z,1.70
2023-03-29T00:42:22.595Z,1.70
2023-03-29T00:45:17.889Z,1.50
2023-03-29T00:47:57.170Z,1.60
2023-03-29T00:50:36.320Z,1.63
2023-03-29T00:53:15.354Z,1.60
2023-03-29T00:55:54.962Z,1.60
2023-03-29T00:58:38.006Z,1.50
2023-03-29T01:01:19.751Z,1.60
2023-03-29T01:04:00.375Z,1.50
2023-03-29T01:06:39.328Z,1.60
2023-03-29T01:09:17.425Z,1.90
2023-03-29T01:11:57.405Z,1.60
2023-03-29T01:14:40.423Z,1.70
2023-03-29T01:17:16.502Z,1.60
2023-03-29T01:20:00.236Z,1.73
2023-03-29T01:22:49.600Z,1.50
2023-03-29T01:25:38.163Z,1.53
2023-03-29T01:28:18.975Z,1.80
2023-03-29T01:31:00.754Z,1.50
2023-03-29T01:33:41.012Z,1.60
2023-03-29T01:36:21.185Z,1.40
2023-03-29T01:38:59.279Z,1.70
2023-03-29T01:41:56.764Z,1.10
2023-03-29T01:44:41.402Z,1.67
2023-03-29T01:47:27.233Z,1.43
2023-03-29T01:50:15.205Z,1.50
2023-03-29T01:52:58.634Z,1.13
2023-03-29T01:55:38.652Z,1.73
2023-03-29T01:58:15.786Z,1.50
2023-03-29T02:00:55.801Z,1.57
2023-03-29T02:03:34.276Z,1.50
2023-03-29T02:06:08.616Z,1.30
2023-03-29T02:08:44.842Z,1.67
2023-03-29T02:11:19.812Z,1.60
2023-03-29T02:13:53.624Z,1.40
2023-03-29T02:16:29.673Z,1.30
2023-03-29T02:19:04.192Z,1.33
2023-03-29T02:21:44.323Z,1.93
2023-03-29T02:24:21.730Z,1.50
2023-03-29T02:26:56.043Z,1.53
2023-03-29T02:29:29.688Z,1.40
2023-03-29T02:32:13.600Z,1.40
2023-03-29T02:34:56.565Z,1.30
2023-03-29T02:37:34.541Z,1.53
2023-03-29T02:40:13.086Z,1.33
2023-03-29T02:42:49.945Z,1.50
2023-03-29T02:45:27.344Z,1.30
2023-03-29T02:48:07.802Z,1.60
2023-03-29T02:50:47.719Z,1.37
2023-03-29T02:53:30.048Z,1.30
2023-03-29T02:56:05.682Z,1.80
2023-03-29T02:58:39.489Z,1.60
2023-03-29T03:01:15.123Z,1.40
2023-03-29T03:03:50.911Z,1.40
2023-03-29T03:06:25.362Z,1.50
2023-03-29T03:08:59.165Z,1.50
2023-03-29T03:11:32.902Z,1.80
2023-03-29T03:14:07.525Z,1.60
2023-03-29T03:16:41.496Z,1.50
2023-03-29T03:19:16.871Z,1.23
2023-03-29T03:21:51.087Z,1.53
2023-03-29T03:24:25.852Z,1.43
2023-03-29T03:26:59.380Z,1.47
2023-03-29T03:29:33.668Z,1.63
2023-03-29T03:32:08.004Z,1.47
2023-03-29T03:34:43.899Z,1.50
2023-03-29T03:37:18.515Z,1.60
2023-03-29T03:39:52.543Z,1.70
2023-03-29T03:42:29.512Z,1.90
2023-03-29T03:45:05.156Z,1.50
2023-03-29T03:47:40.318Z,1.90
2023-03-29T03:50:15.859Z,1.43
2023-03-29T03:52:49.978Z,1.83
2023-03-29T03:55:24.300Z,1.80
2023-03-29T03:57:58.164Z,1.50
2023-03-29T04:00:33.654Z,1.57
2023-03-29T04:03:08.851Z,1.87
2023-03-29T04:05:46.392Z,2.00
2023-03-29T04:08:22.555Z,1.73
2023-03-29T04:10:58.631Z,1.80
2023-03-29T04:13:32.219Z,1.63
2023-03-29T04:16:07.578Z,1.90
2023-03-29T04:18:41.666Z,1.43
2023-03-29T04:21:19.983Z,2.00
2023-03-29T04:23:54.524Z,1.90
2023-03-29T04:26:30.036Z,1.70
2023-03-29T04:29:03.476Z,1.70
2023-03-29T04:31:37.784Z,1.60
2023-03-29T04:34:11.427Z,1.50
2023-03-29T04:36:46.192Z,1.80
2023-03-29T04:39:19.962Z,1.97
2023-03-29T04:41:56.439Z,2.10
2023-03-29T04:44:29.981Z,1.70
2023-03-29T04:47:04.783Z,1.77
2023-03-29T04:49:38.501Z,1.83
2023-03-29T04:52:13.773Z,2.00
2023-03-29T04:54:47.530Z,1.83
2023-03-29T04:57:21.959Z,2.13
2023-03-29T04:59:58.504Z,1.80
2023-03-29T05:02:32.885Z,1.93
2023-03-29T05:05:08.614Z,2.30
2023-03-29T05:07:44.373Z,2.03
2023-03-29T05:10:19.455Z,1.77
2023-03-29T05:12:54.405Z,2.20
2023-03-29T05:15:28.537Z,2.23
2023-03-29T05:18:02.998Z,2.10
2023-03-29T05:20:37.612Z,2.20
2023-03-29T05:23:12.560Z,2.07
2023-03-29T05:25:46.177Z,2.03
2023-03-29T05:28:19.921Z,2.17
2023-03-29T05:31:02.668Z,2.33
2023-03-29T05:33:37.482Z,2.20
2023-03-29T05:36:14.544Z,2.37
2023-03-29T05:38:51.193Z,2.40
2023-03-29T05:41:25.875Z,2.37
2023-03-29T05:43:59.407Z,2.40
2023-03-29T05:46:32.825Z,2.80
2023-03-29T05:49:06.503Z,2.77
2023-03-29T05:51:42.290Z,2.90
2023-03-29T05:54:17.185Z,2.60
2023-03-29T05:56:51.421Z,3.00
2023-03-29T05:59:25.283Z,2.80
2023-03-29T06:02:00.797Z,2.70
2023-03-29T06:04:35.972Z,2.40
2023-03-29T06:07:12.739Z,2.90
2023-03-29T06:09:48.445Z,2.50
2023-03-29T06:12:24.812Z,2.67
2023-03-29T06:15:05.197Z,2.80
2023-03-29T06:17:39.867Z,2.90
2023-03-29T06:20:14.558Z,2.87
2023-03-29T06:22:48.351Z,2.70
2023-03-29T06:25:23.371Z,2.50
2023-03-29T06:27:57.245Z,2.70
2023-03-29T06:30:30.921Z,2.73
2023-03-29T06:33:06.836Z,3.20
2023-03-29T06:35:44.463Z,3.10
2023-03-29T06:38:19.608Z,2.53
2023-03-29T06:41:02.421Z,2.90
2023-03-29T06:43:36.581Z,2.60
2023-03-29T06:46:12.500Z,2.90
2023-03-29T06:48:47.597Z,2.40
2023-03-29T06:51:23.312Z,2.57
2023-03-29T06:53:57.057Z,2.70
2023-03-29T06:56:32.846Z,2.70
2023-03-29T06:59:06.585Z,2.50
2023-03-29T07:01:40.719Z,3.00
2023-03-29T07:04:14.121Z,3.03
2023-03-29T07:06:48.559Z,2.70
2023-03-29T07:09:22.099Z,2.80
2023-03-29T07:11:58.552Z,2.83
2023-03-29T07:14:31.880Z,2.37
2023-03-29T07:17:05.839Z,2.60
2023-03-29T07:19:39.766Z,2.87
2023-03-29T07:22:13.994Z,2.53
2023-03-29T07:24:47.663Z,2.00
2023-03-29T07:27:23.744Z,2.60
2023-03-29T07:29:58.189Z,2.40
2023-03-29T07:32:33.141Z,2.47
2023-03-29T07:35:08.266Z,2.20
2023-03-29T07:37:42.785Z,2.40
2023-03-29T07:40:24.488Z,2.17
2023-03-29T07:43:00.454Z,2.10
2023-03-29T07:45:34.357Z,2.20
2023-03-29T07:48:09.139Z,2.13
2023-03-29T07:50:43.556Z,2.40
2023-03-29T07:53:17.670Z,2.43
2023-03-29T07:55:55.083Z,2.30
2023-03-29T07:58:30.826Z,2.20
2023-03-29T08:01:06.245Z,1.87
2023-03-29T08:03:40.128Z,1.77
2023-03-29T08:06:13.676Z,2.00
2023-03-29T08:08:47.522Z,1.97
2023-03-29T08:11:21.071Z,2.10
2023-03-29T08:13:56.355Z,2.03
2023-03-29T08:16:29.907Z,1.70
2023-03-29T08:19:03.759Z,1.77
2023-03-29T08:21:38.007Z,1.90
2023-03-29T08:24:12.257Z,1.90
2023-03-29T08:26:46.277Z,1.70
2023-03-29T08:29:22.724Z,1.50
2023-03-29T08:31:57.552Z,1.80
2023-03-29T08:34:32.160Z,1.90
2023-03-29T08:37:06.104Z,2.07
2023-03-29T08:39:39.673Z,2.00
2023-03-29T08:42:38.149Z,1.90
2023-03-29T08:45:27.793Z,2.00
2023-03-29T08:48:13.857Z,2.20
2023-03-29T08:50:53.183Z,2.00
2023-03-29T08:53:35.261Z,2.20
2023-03-29T08:56:15.336Z,1.90
2023-03-29T08:58:52.892Z,2.23
2023-03-29T09:01:34.227Z,2.03
2023-03-29T09:04:13.282Z,1.83
2023-03-29T09:06:47.713Z,2.13
2023-03-29T09:09:25.455Z,1.90
2023-03-29T09:12:14.764Z,2.00
2023-03-29T09:15:04.672Z,2.03
2023-03-29T09:17:56.584Z,1.83
2023-03-29T09:20:49.492Z,2.00
2023-03-29T09:24:05.707Z,2.13
2023-03-29T09:26:48.978Z,1.90
2023-03-29T09:30:00.987Z,2.17
2023-03-29T09:32:51.280Z,2.00
2023-03-29T09:35:32.553Z,2.23
2023-03-29T09:38:12.688Z,2.50
2023-03-29T09:40:51.641Z,2.20
2023-03-29T09:43:34.194Z,2.00
2023-03-29T09:46:19.575Z,2.50
2023-03-29T09:48:57.440Z,2.00
2023-03-29T09:51:35.646Z,2.00
2023-03-29T09:54:13.336Z,2.00
2023-03-29T09:56:47.364Z,1.90
2023-03-29T09:59:21.627Z,2.00
2023-03-29T10:02:06.960Z,2.30
2023-03-29T10:04:43.561Z,1.70
2023-03-29T10:07:21.425Z,1.47
2023-03-29T10:09:57.827Z,2.10
2023-03-29T10:12:34.547Z,1.90
2023-03-29T10:15:26.774Z,1.90
2023-03-29T10:18:10.949Z,2.40
2023-03-29T10:20:45.932Z,2.13
2023-03-29T10:23:20.750Z,1.97
2023-03-29T10:25:55.221Z,1.97
2023-03-29T10:28:31.144Z,2.00
2023-03-29T10:31:08.194Z,2.13
2023-03-29T10:33:43.200Z,1.97
2023-03-29T10:36:19.474Z,2.13
2023-03-29T10:38:56.257Z,1.90
2023-03-29T10:41:34.846Z,2.07
2023-03-29T10:44:25.652Z,1.93
2023-03-29T10:47:16.429Z,1.83
2023-03-29T10:49:57.078Z,2.20
2023-03-29T10:52:32.781Z,2.00
2023-03-29T10:55:07.597Z,1.80
2023-03-29T10:58:00.212Z,1.93
2023-03-29T11:00:42.202Z,2.00
2023-03-29T11:03:48.311Z,1.80
2023-03-29T11:06:33.812Z,1.80
2023-03-29T11:09:26.731Z,1.90
2023-03-29T11:12:20.908Z,2.10
2023-03-29T11:15:11.598Z,2.30
2023-03-29T11:18:07.179Z,1.80
2023-03-29T11:20:50.046Z,2.20
2023-03-29T11:23:39.902Z,1.70
2023-03-29T11:26:25.081Z,2.07
2023-03-29T11:29:07.470Z,2.17
2023-03-29T11:31:54.982Z,1.87
2023-03-29T11:34:40.295Z,2.40
2023-03-29T11:37:24.234Z,2.00
2023-03-29T11:40:22.026Z,2.00
2023-03-29T11:43:01.739Z,2.00
2023-03-29T11:45:42.832Z,1.90
2023-03-29T11:48:27.223Z,1.97
2023-03-29T11:51:10.104Z,2.07
2023-03-29T11:53:57.937Z,2.13
2023-03-29T11:56:39.274Z,1.90
2023-03-29T11:59:23.687Z,2.10
2023-03-29T12:02:05.457Z,2.13
2023-03-29T12:04:48.070Z,2.40
2023-03-29T12:07:31.024Z,1.90
2023-03-29T12:10:17.756Z,2.00
2023-03-29T12:13:02.309Z,2.00
2023-03-29T12:15:45.154Z,2.10
2023-03-29T12:18:26.655Z,2.00
2023-03-29T12:21:06.352Z,2.53
2023-03-29T12:23:44.820Z,1.90
2023-03-29T12:26:41.888Z,2.40
2023-03-29T12:29:49.546Z,2.17
2023-03-29T12:33:10.043Z,1.90
2023-03-29T12:35:59.566Z,2.33
2023-03-29T12:38:34.328Z,1.90
2023-03-29T12:41:20.545Z,1.87
2023-03-29T12:43:55.232Z,2.10
2023-03-29T12:46:35.705Z,2.03
2023-03-29T12:49:21.253Z,2.07
2023-03-29T12:51:59.981Z,2.03
2023-03-29T12:54:34.689Z,2.33
2023-03-29T12:57:28.672Z,2.13
2023-03-29T13:00:21.325Z,1.83
2023-03-29T13:03:07.337Z,1.97
2023-03-29T13:05:42.669Z,2.10
2023-03-29T13:08:27.401Z,1.80
2023-03-29T13:11:01.304Z,2.10
2023-03-29T13:13:38.915Z,2.33
2023-03-29T13:16:19.753Z,2.03
2023-03-29T13:19:08.578Z,2.10
2023-03-29T13:22:00.483Z,2.00
2023-03-29T13:25:21.168Z,2.20
2023-03-29T13:28:07.748Z,2.03
2023-03-29T13:30:57.267Z,2.00
2023-03-29T13:33:54.809Z,2.10
2023-03-29T13:36:49.682Z,1.73
2023-03-29T13:39:31.066Z,2.17
2023-03-29T13:42:20.485Z,2.40
2023-03-29T13:44:54.674Z,2.20
2023-03-29T13:47:48.898Z,1.93
2023-03-29T13:50:39.178Z,2.40
2023-03-29T13:53:31.014Z,2.13
2023-03-29T13:56:08.493Z,2.37
2023-03-29T13:58:47.911Z,2.30
2023-03-29T14:01:30.414Z,2.43
2023-03-29T14:04:07.821Z,2.17
2023-03-29T14:06:46.590Z,2.20
2023-03-29T14:09:28.480Z,2.57
2023-03-29T14:12:02.996Z,2.37
2023-03-29T14:14:42.591Z,2.03
2023-03-29T14:17:27.258Z,2.27
2023-03-29T14:20:02.731Z,2.50
2023-03-29T14:22:37.319Z,2.10
2023-03-29T14:25:21.573Z,1.50
2023-03-29T14:27:55.435Z,2.00
2023-03-29T14:30:35.943Z,1.80
2023-03-29T14:33:16.087Z,2.27
2023-03-29T14:35:50.287Z,1.57
2023-03-29T14:38:26.301Z,1.93
2023-03-29T14:41:04.004Z,2.00
2023-03-29T14:43:38.880Z,1.77
2023-03-29T14:46:17.531Z,1.60
2023-03-29T14:48:51.418Z,1.43
2023-03-29T14:51:28.911Z,1.70
2023-03-29T14:54:05.725Z,1.70
2023-03-29T14:56:41.061Z,1.47
2023-03-29T14:59:30.122Z,1.40
2023-03-29T15:02:03.835Z,1.50
2023-03-29T15:04:38.993Z,1.40
2023-03-29T15:07:12.600Z,1.50
2023-03-29T15:09:49.611Z,1.87
2023-03-29T15:12:25.710Z,1.40
2023-03-29T15:15:01.067Z,1.30
2023-03-29T15:17:51.009Z,1.43
2023-03-29T15:20:30.488Z,1.00
2023-03-29T15:23:19.952Z,1.27
2023-03-29T15:25:58.828Z,1.20
2023-03-29T15:28:37.058Z,1.07
2023-03-29T15:31:16.614Z,1.00
2023-03-29T15:33:50.156Z,1.30
2023-03-29T15:36:24.239Z,1.10
2023-03-29T15:38:59.370Z,1.47
2023-03-29T15:41:33.548Z,1.27
2023-03-29T15:44:09.598Z,1.23
2023-03-29T15:46:43.181Z,1.60
2023-03-29T15:49:16.855Z,1.10
2023-03-29T15:51:50.454Z,1.50
2023-03-29T15:54:24.941Z,1.53
2023-03-29T15:57:04.427Z,1.60
2023-03-29T15:59:39.402Z,1.23
2023-03-29T16:02:16.953Z,1.40
2023-03-29T16:04:50.841Z,1.10
2023-03-29T16:07:24.119Z,1.50
2023-03-29T16:09:58.011Z,1.30
2023-03-29T16:12:31.492Z,1.23
2023-03-29T16:15:17.896Z,1.27
2023-03-29T16:17:52.736Z,1.20
2023-03-29T16:20:27.282Z,1.20
2023-03-29T16:23:01.477Z,1.43
2023-03-29T16:25:36.670Z,1.20
2023-03-29T16:28:10.963Z,2.07
2023-03-29T16:30:46.625Z,1.50
2023-03-29T16:33:20.795Z,1.23
2023-03-29T16:35:54.242Z,1.17
2023-03-29T16:38:29.332Z,1.40
2023-03-29T16:41:03.013Z,1.33
2023-03-29T16:43:38.681Z,2.13
2023-03-29T16:46:13.948Z,2.10
2023-03-29T16:48:49.193Z,9.43
2023-03-29T16:51:23.416Z,4.00
2023-03-29T16:53:57.162Z,2.30
2023-03-29T16:56:31.260Z,2.00
2023-03-29T16:59:05.369Z,1.60
2023-03-29T17:01:41.054Z,3.03
2023-03-29T17:04:14.933Z,1.57
2023-03-29T17:06:48.757Z,1.73
2023-03-29T17:09:24.743Z,1.40
2023-03-29T17:11:58.906Z,1.53
2023-03-29T17:14:32.629Z,1.33
2023-03-29T17:17:07.902Z,1.37
2023-03-29T17:19:42.048Z,1.33
2023-03-29T17:22:16.498Z,1.30
2023-03-29T17:24:50.159Z,1.40
2023-03-29T17:27:24.434Z,1.47
2023-03-29T17:29:58.208Z,1.50
2023-03-29T17:32:33.889Z,1.47
2023-03-29T17:35:08.454Z,1.20
2023-03-29T17:37:43.669Z,1.30
2023-03-29T17:40:18.355Z,1.53
2023-03-29T17:42:52.817Z,1.13
2023-03-29T17:45:26.405Z,1.27
2023-03-29T17:48:04.054Z,1.10
2023-03-29T17:50:39.349Z,1.13
2023-03-29T17:53:13.685Z,1.13
2023-03-29T17:55:47.197Z,1.13
2023-03-29T17:58:20.910Z,1.37
2023-03-29T18:00:54.825Z,1.57
2023-03-29T18:03:30.241Z,1.43
2023-03-29T18:06:05.414Z,1.30
2023-03-29T18:08:40.631Z,1.40
2023-03-29T18:11:19.568Z,1.50
2023-03-29T18:13:54.543Z,1.40
2023-03-29T18:16:28.734Z,1.50
2023-03-29T18:19:03.853Z,1.10
2023-03-29T18:21:38.704Z,1.10
2023-03-29T18:24:14.914Z,1.60
2023-03-29T18:26:48.180Z,1.40
2023-03-29T18:29:21.777Z,1.37
2023-03-29T18:31:55.871Z,1.40
2023-03-29T18:34:32.006Z,1.17
2023-03-29T18:37:06.103Z,1.20
2023-03-29T18:39:41.391Z,1.43
2023-03-29T18:42:14.853Z,1.33
2023-03-29T18:44:49.945Z,1.40
2023-03-29T18:47:23.939Z,1.40
2023-03-29T18:49:58.910Z,1.40
2023-03-29T18:52:32.885Z,1.20
2023-03-29T18:55:08.445Z,1.30
2023-03-29T18:57:42.321Z,1.20
2023-03-29T19:00:16.569Z,1.23
2023-03-29T19:02:50.737Z,1.30
2023-03-29T19:05:28.882Z,1.20
2023-03-29T19:08:04.847Z,1.10
2023-03-29T19:10:40.401Z,1.23
2023-03-29T19:13:13.976Z,1.33
2023-03-29T19:15:48.032Z,1.30
2023-03-29T19:18:21.956Z,1.17
2023-03-29T19:20:57.588Z,1.13
2023-03-29T19:23:31.861Z,1.40
2023-03-29T19:26:07.538Z,1.10
2023-03-29T19:28:41.746Z,1.13
2023-03-29T19:31:15.249Z,1.10
2023-03-29T19:33:48.964Z,1.30
2023-03-29T19:36:24.651Z,0.90
2023-03-29T19:38:58.301Z,1.30
2023-03-29T19:41:31.631Z,1.20
2023-03-29T19:44:06.886Z,1.17
2023-03-29T19:46:40.598Z,0.97
2023-03-29T19:49:14.366Z,1.30
2023-03-29T19:51:49.815Z,1.17
2023-03-29T19:54:23.727Z,1.20
2023-03-29T19:56:58.226Z,1.27
2023-03-29T19:59:32.462Z,1.10
2023-03-29T20:02:06.838Z,1.10
2023-03-29T20:04:40.936Z,1.13
2023-03-29T20:07:16.511Z,1.10
2023-03-29T20:09:50.047Z,1.20
2023-03-29T20:12:24.938Z,1.03
2023-03-29T20:14:58.677Z,1.10
2023-03-29T20:17:32.381Z,1.13
2023-03-29T20:20:09.161Z,1.63
2023-03-29T20:22:45.466Z,1.20
2023-03-29T20:25:19.292Z,1.20
2023-03-29T20:27:53.212Z,1.27
2023-03-29T20:30:27.574Z,1.17
2023-03-29T20:33:01.488Z,1.40
2023-03-29T20:35:35.511Z,1.23
2023-03-29T20:38:11.748Z,1.13
2023-03-29T20:40:45.247Z,1.20
2023-03-29T20:43:20.528Z,1.20
2023-03-29T20:45:54.652Z,1.23
2023-03-29T20:48:31.588Z,1.23
2023-03-29T20:51:10.408Z,1.37
2023-03-29T20:53:48.721Z,1.37
2023-03-29T20:56:22.303Z,1.20
2023-03-29T20:58:57.612Z,1.43
2023-03-29T21:01:31.358Z,1.60
2023-03-29T21:04:04.915Z,1.30
2023-03-29T21:06:39.565Z,1.10
2023-03-29T21:09:15.952Z,1.50
2023-03-29T21:11:50.076Z,1.50
2023-03-29T21:14:23.895Z,1.20
2023-03-29T21:16:57.931Z,1.20
2023-03-29T21:19:31.643Z,1.30
2023-03-29T21:22:05.112Z,1.30
2023-03-29T21:24:40.549Z,1.40
2023-03-29T21:27:14.060Z,1.30
2023-03-29T21:29:48.126Z,1.40
2023-03-29T21:32:21.779Z,1.40
2023-03-29T21:34:55.397Z,1.43
2023-03-29T21:37:29.245Z,1.20
2023-03-29T21:40:08.359Z,1.53
2023-03-29T21:42:41.732Z,1.30
2023-03-29T21:45:16.314Z,1.23
2023-03-29T21:47:49.755Z,1.17
2023-03-29T21:50:23.279Z,1.60
2023-03-29T21:52:57.122Z,1.50
2023-03-29T21:55:36.190Z,1.13
2023-03-29T21:58:09.949Z,1.20
2023-03-29T22:00:46.060Z,1.60
2023-03-29T22:03:19.937Z,1.20
2023-03-29T22:06:02.540Z,1.20
2023-03-29T22:08:39.095Z,1.10
2023-03-29T22:11:17.781Z,1.00
2023-03-29T22:13:53.742Z,1.13
2023-03-29T22:16:28.651Z,1.33
2023-03-29T22:19:02.682Z,1.40
2023-03-29T22:21:37.341Z,1.20
2023-03-29T22:24:11.136Z,1.33
2023-03-29T22:26:46.448Z,1.30
2023-03-29T22:29:20.207Z,1.30
2023-03-29T22:31:53.835Z,1.27
2023-03-29T22:34:27.527Z,1.10
2023-03-29T22:37:01.305Z,1.50
2023-03-29T22:39:37.068Z,1.50
2023-03-29T22:42:13.279Z,1.60
2023-03-29T22:44:47.952Z,1.40
2023-03-29T22:47:22.521Z,1.30
2023-03-29T22:49:56.238Z,1.30
2023-03-29T22:52:30.341Z,1.27
2023-03-29T22:55:03.857Z,1.27
2023-03-29T22:57:39.070Z,1.30
2023-03-29T23:00:14.519Z,1.20
2023-03-29T23:02:49.195Z,1.30
2023-03-29T23:05:24.440Z,1.20
2023-03-29T23:07:59.007Z,1.30
2023-03-29T23:10:32.626Z,1.30
2023-03-29T23:13:09.565Z,1.60
2023-03-29T23:15:47.320Z,1.40
2023-03-29T23:18:22.273Z,1.30
2023-03-29T23:20:58.156Z,1.23
2023-03-29T23:23:32.639Z,1.30
2023-03-29T23:26:08.479Z,1.50
2023-03-29T23:28:43.522Z,1.37
2023-03-29T23:31:18.891Z,1.40
2023-03-29T23:33:53.094Z,1.33
2023-03-29T23:36:31.504Z,1.30
2023-03-29T23:39:08.240Z,1.30
2023-03-29T23:41:43.274Z,1.43
2023-03-29T23:44:18.200Z,1.27
2023-03-29T23:46:51.678Z,1.47
2023-03-29T23:49:25.719Z,1.50
2023-03-29T23:52:00.202Z,1.20
2023-03-29T23:54:34.400Z,1.27
2023-03-29T23:57:08.210Z,1.40
2023-03-29T23:59:43.626Z,1.30
